sensor_id;sensor_type;location;lat;lon;timestamp;temperature;humidity
20594;DHT22;10455;48.732;10.266;2024-03-25T00:00:49;4.00;99.90
20594;DHT22;10455;48.732;10.266;2024-03-25T00:05:51;3.90;99.90
20594;DHT22;10455;48.732;10.266;2024-03-25T00:10:55;4.00;99.90
20594;DHT22;10455;48.732;10.266;2024-03-25T00:15:57;4.00;99.90
20594;DHT22;10455;48.732;10.266;2024-03-25T00:20:59;4.10;99.90
20594;DHT22;10455;48.732;10.266;2024-03-25T00:26:02;4.10;99.90
20594;DHT22;10455;48.732;10.266;2024-03-25T00:31:04;4.10;99.90
20594;DHT22;10455;48.732;10.266;2024-03-25T00:36:06;4.10;99.90
20594;DHT22;10455;48.732;10.266;2024-03-25T00:41:10;3.90;99.90
20594;DHT22;10455;48.732;10.266;2024-03-25T00:46:12;4.00;99.90
20594;DHT22;10455;48.732;10.266;2024-03-25T00:51:14;3.90;99.90
20594;DHT22;10455;48.732;10.266;2024-03-25T00:56:17;3.90;99.90
20594;DHT22;10455;48.732;10.266;2024-03-25T01:01:19;4.10;99.90
20594;DHT22;10455;48.732;10.266;2024-03-25T01:06:21;3.90;99.90
20594;DHT22;10455;48.732;10.266;2024-03-25T01:11:24;3.80;99.90
20594;DHT22;10455;48.732;10.266;2024-03-25T01:16:26;3.70;99.90
20594;DHT22;10455;48.732;10.266;2024-03-25T01:21:28;3.60;99.90
20594;DHT22;10455;48.732;10.266;2024-03-25T01:26:32;3.70;99.90
20594;DHT22;10455;48.732;10.266;2024-03-25T01:31:34;3.50;99.90
20594;DHT22;10455;48.732;10.266;2024-03-25T01:36:35;3.40;99.90
20594;DHT22;10455;48.732;10.266;2024-03-25T01:41:39;3.50;99.90
20594;DHT22;10455;48.732;10.266;2024-03-25T01:46:41;3.40;99.90
20594;DHT22;10455;48.732;10.266;2024-03-25T01:51:43;3.40;99.90
20594;DHT22;10455;48.732;10.266;2024-03-25T01:56:47;3.40;99.90
20594;DHT22;10455;48.732;10.266;2024-03-25T02:01:49;3.40;99.90
20594;DHT22;10455;48.732;10.266;2024-03-25T02:06:52;3.30;99.90
20594;DHT22;10455;48.732;10.266;2024-03-25T02:11:57;3.10;99.90
20594;DHT22;10455;48.732;10.266;2024-03-25T02:16:59;3.00;99.90
20594;DHT22;10455;48.732;10.266;2024-03-25T02:22:02;3.10;99.90
20594;DHT22;10455;48.732;10.266;2024-03-25T02:27:05;3.00;99.90
20594;DHT22;10455;48.732;10.266;2024-03-25T02:32:08;3.10;99.90
20594;DHT22;10455;48.732;10.266;2024-03-25T02:37:11;3.10;99.90
20594;DHT22;10455;48.732;10.266;2024-03-25T02:42:14;3.10;99.90
20594;DHT22;10455;48.732;10.266;2024-03-25T02:47:16;3.10;99.90
20594;DHT22;10455;48.732;10.266;2024-03-25T02:52:20;3.00;99.90
20594;DHT22;10455;48.732;10.266;2024-03-25T02:57:23;3.00;99.90
20594;DHT22;10455;48.732;10.266;2024-03-25T03:02:25;2.80;99.90
20594;DHT22;10455;48.732;10.266;2024-03-25T03:07:27;2.80;99.90
20594;DHT22;10455;48.732;10.266;2024-03-25T03:12:30;2.80;99.90
20594;DHT22;10455;48.732;10.266;2024-03-25T03:17:32;2.80;99.90
20594;DHT22;10455;48.732;10.266;2024-03-25T03:22:35;2.80;99.90
20594;DHT22;10455;48.732;10.266;2024-03-25T03:27:38;3.10;99.90
20594;DHT22;10455;48.732;10.266;2024-03-25T03:32:40;3.30;99.90
20594;DHT22;10455;48.732;10.266;2024-03-25T03:37:42;3.40;99.90
20594;DHT22;10455;48.732;10.266;2024-03-25T03:42:45;3.50;99.90
20594;DHT22;10455;48.732;10.266;2024-03-25T03:47:47;3.60;99.90
20594;DHT22;10455;48.732;10.266;2024-03-25T03:52:49;3.50;99.90
20594;DHT22;10455;48.732;10.266;2024-03-25T03:57:52;3.40;99.90
20594;DHT22;10455;48.732;10.266;2024-03-25T04:02:54;3.30;99.90
20594;DHT22;10455;48.732;10.266;2024-03-25T04:07:56;3.20;99.90
20594;DHT22;10455;48.732;10.266;2024-03-25T04:13:00;3.30;99.90
20594;DHT22;10455;48.732;10.266;2024-03-25T04:18:02;3.30;99.90
20594;DHT22;10455;48.732;10.266;2024-03-25T04:23:04;3.20;99.90
20594;DHT22;10455;48.732;10.266;2024-03-25T04:28:09;3.10;99.90
20594;DHT22;10455;48.732;10.266;2024-03-25T04:33:11;3.00;99.90
20594;DHT22;10455;48.732;10.266;2024-03-25T04:38:15;3.10;99.90
20594;DHT22;10455;48.732;10.266;2024-03-25T04:43:17;3.40;99.90
20594;DHT22;10455;48.732;10.266;2024-03-25T04:48:18;3.50;99.90
20594;DHT22;10455;48.732;10.266;2024-03-25T04:53:19;3.40;99.90
20594;DHT22;10455;48.732;10.266;2024-03-25T04:58:21;3.40;99.90
20594;DHT22;10455;48.732;10.266;2024-03-25T05:03:22;3.40;99.90
20594;DHT22;10455;48.732;10.266;2024-03-25T05:08:23;3.60;99.90
20594;DHT22;10455;48.732;10.266;2024-03-25T05:13:26;3.80;99.90
20594;DHT22;10455;48.732;10.266;2024-03-25T05:18:27;4.00;99.90
20594;DHT22;10455;48.732;10.266;2024-03-25T05:23:28;3.90;99.90
20594;DHT22;10455;48.732;10.266;2024-03-25T05:28:30;4.10;99.90
20594;DHT22;10455;48.732;10.266;2024-03-25T05:33:31;3.90;99.90
20594;DHT22;10455;48.732;10.266;2024-03-25T05:38:32;4.00;99.90
20594;DHT22;10455;48.732;10.266;2024-03-25T05:43:34;4.20;99.90
20594;DHT22;10455;48.732;10.266;2024-03-25T05:48:35;4.10;99.90
20594;DHT22;10455;48.732;10.266;2024-03-25T05:53:36;4.40;99.90
20594;DHT22;10455;48.732;10.266;2024-03-25T05:58:39;4.40;99.90
20594;DHT22;10455;48.732;10.266;2024-03-25T06:03:40;4.50;99.90
20594;DHT22;10455;48.732;10.266;2024-03-25T06:08:41;4.60;99.90
20594;DHT22;10455;48.732;10.266;2024-03-25T06:13:45;5.00;99.90
20594;DHT22;10455;48.732;10.266;2024-03-25T06:18:46;5.60;99.90
20594;DHT22;10455;48.732;10.266;2024-03-25T06:23:47;5.50;99.90
20594;DHT22;10455;48.732;10.266;2024-03-25T06:28:49;5.10;99.90
20594;DHT22;10455;48.732;10.266;2024-03-25T06:33:50;5.00;99.90
20594;DHT22;10455;48.732;10.266;2024-03-25T06:39:10;5.10;99.90
20594;DHT22;10455;48.732;10.266;2024-03-25T06:44:12;5.10;99.90
20594;DHT22;10455;48.732;10.266;2024-03-25T06:49:13;5.20;99.90
20594;DHT22;10455;48.732;10.266;2024-03-25T06:54:14;5.60;99.90
20594;DHT22;10455;48.732;10.266;2024-03-25T06:59:16;5.50;99.90
20594;DHT22;10455;48.732;10.266;2024-03-25T07:04:17;5.80;99.90
20594;DHT22;10455;48.732;10.266;2024-03-25T07:09:18;6.00;99.90
20594;DHT22;10455;48.732;10.266;2024-03-25T07:14:20;6.50;99.90
20594;DHT22;10455;48.732;10.266;2024-03-25T07:19:21;6.10;99.90
20594;DHT22;10455;48.732;10.266;2024-03-25T07:24:22;6.30;99.90
20594;DHT22;10455;48.732;10.266;2024-03-25T07:29:24;6.80;99.90
20594;DHT22;10455;48.732;10.266;2024-03-25T07:34:26;7.20;99.90
20594;DHT22;10455;48.732;10.266;2024-03-25T07:39:27;7.10;99.90
20594;DHT22;10455;48.732;10.266;2024-03-25T07:44:29;7.40;99.90
20594;DHT22;10455;48.732;10.266;2024-03-25T07:49:31;6.80;99.90
20594;DHT22;10455;48.732;10.266;2024-03-25T07:54:31;7.50;99.90
20594;DHT22;10455;48.732;10.266;2024-03-25T07:59:34;6.90;99.90
20594;DHT22;10455;48.732;10.266;2024-03-25T08:04:35;7.30;99.90
20594;DHT22;10455;48.732;10.266;2024-03-25T08:09:36;7.90;99.90
20594;DHT22;10455;48.732;10.266;2024-03-25T08:14:38;7.80;99.90
20594;DHT22;10455;48.732;10.266;2024-03-25T08:19:39;8.30;99.90
20594;DHT22;10455;48.732;10.266;2024-03-25T08:24:40;14.70;99.90
20594;DHT22;10455;48.732;10.266;2024-03-25T08:29:42;17.20;99.90
20594;DHT22;10455;48.732;10.266;2024-03-25T08:34:43;16.00;98.70
20594;DHT22;10455;48.732;10.266;2024-03-25T08:39:44;14.10;99.90
20594;DHT22;10455;48.732;10.266;2024-03-25T08:44:46;11.70;99.90
20594;DHT22;10455;48.732;10.266;2024-03-25T08:49:47;10.80;99.90
20594;DHT22;10455;48.732;10.266;2024-03-25T08:54:48;14.00;99.90
20594;DHT22;10455;48.732;10.266;2024-03-25T08:59:50;15.60;98.60
20594;DHT22;10455;48.732;10.266;2024-03-25T09:04:51;12.40;99.90
20594;DHT22;10455;48.732;10.266;2024-03-25T09:09:52;10.40;99.90
20594;DHT22;10455;48.732;10.266;2024-03-25T09:15:13;14.00;99.90
20594;DHT22;10455;48.732;10.266;2024-03-25T09:20:14;15.10;98.10
20594;DHT22;10455;48.732;10.266;2024-03-25T09:25:19;16.30;98.00
20594;DHT22;10455;48.732;10.266;2024-03-25T09:30:21;18.30;93.30
20594;DHT22;10455;48.732;10.266;2024-03-25T09:35:22;17.50;92.60
20594;DHT22;10455;48.732;10.266;2024-03-25T09:40:24;14.60;94.30
20594;DHT22;10455;48.732;10.266;2024-03-25T09:45:29;14.20;96.40
20594;DHT22;10455;48.732;10.266;2024-03-25T09:50:30;17.40;91.20
20594;DHT22;10455;48.732;10.266;2024-03-25T09:55:32;17.70;91.50
20594;DHT22;10455;48.732;10.266;2024-03-25T10:00:34;18.70;87.30
20594;DHT22;10455;48.732;10.266;2024-03-25T10:05:35;15.50;90.70
20594;DHT22;10455;48.732;10.266;2024-03-25T10:10:36;15.00;92.00
20594;DHT22;10455;48.732;10.266;2024-03-25T10:15:39;18.50;84.30
20594;DHT22;10455;48.732;10.266;2024-03-25T10:20:49;21.40;82.40
20594;DHT22;10455;48.732;10.266;2024-03-25T10:26:07;20.90;79.50
20594;DHT22;10455;48.732;10.266;2024-03-25T10:31:21;17.50;82.20
20594;DHT22;10455;48.732;10.266;2024-03-25T10:36:24;14.80;87.90
20594;DHT22;10455;48.732;10.266;2024-03-25T10:41:27;13.50;90.10
20594;DHT22;10455;48.732;10.266;2024-03-25T10:46:30;13.60;90.40
20594;DHT22;10455;48.732;10.266;2024-03-25T10:51:31;15.00;85.00
20594;DHT22;10455;48.732;10.266;2024-03-25T10:57:08;15.10;84.30
20594;DHT22;10455;48.732;10.266;2024-03-25T11:14:33;14.00;81.50
20594;DHT22;10455;48.732;10.266;2024-03-25T11:19:52;13.30;84.90
20594;DHT22;10455;48.732;10.266;2024-03-25T11:25:54;12.20;84.80
20594;DHT22;10455;48.732;10.266;2024-03-25T11:43:20;14.30;81.20
20594;DHT22;10455;48.732;10.266;2024-03-25T11:48:22;14.40;79.70
20594;DHT22;10455;48.732;10.266;2024-03-25T11:58:50;14.10;86.40
20594;DHT22;10455;48.732;10.266;2024-03-25T12:09:01;14.00;82.50
20594;DHT22;10455;48.732;10.266;2024-03-25T12:14:24;13.50;85.40
20594;DHT22;10455;48.732;10.266;2024-03-25T12:19:25;13.80;87.10
20594;DHT22;10455;48.732;10.266;2024-03-25T12:24:26;13.50;90.60
20594;DHT22;10455;48.732;10.266;2024-03-25T12:29:44;13.90;89.80
20594;DHT22;10455;48.732;10.266;2024-03-25T12:34:47;12.60;91.80
20594;DHT22;10455;48.732;10.266;2024-03-25T12:39:50;13.90;90.20
20594;DHT22;10455;48.732;10.266;2024-03-25T12:50:55;12.40;91.50
20594;DHT22;10455;48.732;10.266;2024-03-25T12:55:58;12.30;91.90
20594;DHT22;10455;48.732;10.266;2024-03-25T13:01:00;12.70;91.60
20594;DHT22;10455;48.732;10.266;2024-03-25T13:11:49;14.20;90.40
20594;DHT22;10455;48.732;10.266;2024-03-25T13:17:11;12.20;88.70
20594;DHT22;10455;48.732;10.266;2024-03-25T13:22:45;11.40;93.40
20594;DHT22;10455;48.732;10.266;2024-03-25T13:28:06;11.60;91.50
20594;DHT22;10455;48.732;10.266;2024-03-25T13:33:08;12.40;91.90
20594;DHT22;10455;48.732;10.266;2024-03-25T13:38:26;12.60;90.30
20594;DHT22;10455;48.732;10.266;2024-03-25T13:43:29;13.00;90.20
20594;DHT22;10455;48.732;10.266;2024-03-25T13:48:30;12.60;90.90
20594;DHT22;10455;48.732;10.266;2024-03-25T13:53:31;13.60;91.20
20594;DHT22;10455;48.732;10.266;2024-03-25T13:58:33;13.80;89.10
20594;DHT22;10455;48.732;10.266;2024-03-25T14:03:34;14.40;85.80
20594;DHT22;10455;48.732;10.266;2024-03-25T14:08:35;14.90;84.30
20594;DHT22;10455;48.732;10.266;2024-03-25T14:13:38;15.90;80.30
20594;DHT22;10455;48.732;10.266;2024-03-25T14:18:40;16.20;79.90
20594;DHT22;10455;48.732;10.266;2024-03-25T14:23:41;15.40;81.20
20594;DHT22;10455;48.732;10.266;2024-03-25T14:28:44;16.20;75.90
20594;DHT22;10455;48.732;10.266;2024-03-25T14:33:45;17.40;75.30
20594;DHT22;10455;48.732;10.266;2024-03-25T14:38:46;18.50;66.10
20594;DHT22;10455;48.732;10.266;2024-03-25T14:43:49;16.50;68.60
20594;DHT22;10455;48.732;10.266;2024-03-25T14:48:50;16.00;70.30
20594;DHT22;10455;48.732;10.266;2024-03-25T14:53:51;16.10;71.40
20594;DHT22;10455;48.732;10.266;2024-03-25T14:58:54;16.00;72.40
20594;DHT22;10455;48.732;10.266;2024-03-25T15:03:55;17.00;67.90
20594;DHT22;10455;48.732;10.266;2024-03-25T15:08:56;17.20;67.60
20594;DHT22;10455;48.732;10.266;2024-03-25T15:13:59;16.10;67.10
20594;DHT22;10455;48.732;10.266;2024-03-25T15:19:00;14.60;73.70
20594;DHT22;10455;48.732;10.266;2024-03-25T15:24:01;15.10;70.50
20594;DHT22;10455;48.732;10.266;2024-03-25T15:29:04;14.20;73.40
20594;DHT22;10455;48.732;10.266;2024-03-25T15:34:05;15.40;73.10
20594;DHT22;10455;48.732;10.266;2024-03-25T15:39:06;15.50;76.00
20594;DHT22;10455;48.732;10.266;2024-03-25T15:44:08;15.40;73.00
20594;DHT22;10455;48.732;10.266;2024-03-25T15:49:09;14.20;75.30
20594;DHT22;10455;48.732;10.266;2024-03-25T15:54:10;12.60;78.40
20594;DHT22;10455;48.732;10.266;2024-03-25T15:59:13;10.70;80.30
20594;DHT22;10455;48.732;10.266;2024-03-25T16:04:15;10.30;86.00
20594;DHT22;10455;48.732;10.266;2024-03-25T16:09:16;10.50;87.90
20594;DHT22;10455;48.732;10.266;2024-03-25T16:14:19;10.30;88.20
20594;DHT22;10455;48.732;10.266;2024-03-25T16:19:20;9.80;91.00
20594;DHT22;10455;48.732;10.266;2024-03-25T16:24:21;9.40;91.30
20594;DHT22;10455;48.732;10.266;2024-03-25T16:29:24;9.40;91.20
20594;DHT22;10455;48.732;10.266;2024-03-25T16:34:25;9.40;90.30
20594;DHT22;10455;48.732;10.266;2024-03-25T16:39:26;9.40;91.70
20594;DHT22;10455;48.732;10.266;2024-03-25T16:44:29;8.80;91.10
20594;DHT22;10455;48.732;10.266;2024-03-25T16:49:29;8.80;92.10
20594;DHT22;10455;48.732;10.266;2024-03-25T16:54:31;8.60;92.30
20594;DHT22;10455;48.732;10.266;2024-03-25T16:59:33;8.50;92.70
20594;DHT22;10455;48.732;10.266;2024-03-25T17:04:34;8.40;93.30
20594;DHT22;10455;48.732;10.266;2024-03-25T17:09:36;8.00;93.60
20594;DHT22;10455;48.732;10.266;2024-03-25T17:14:38;7.90;94.80
20594;DHT22;10455;48.732;10.266;2024-03-25T17:19:39;7.60;95.20
20594;DHT22;10455;48.732;10.266;2024-03-25T17:24:43;7.40;96.00
20594;DHT22;10455;48.732;10.266;2024-03-25T17:29:49;7.30;96.10
20594;DHT22;10455;48.732;10.266;2024-03-25T17:34:50;7.10;97.20
20594;DHT22;10455;48.732;10.266;2024-03-25T17:39:51;6.80;97.60
20594;DHT22;10455;48.732;10.266;2024-03-25T17:44:53;6.60;98.20
20594;DHT22;10455;48.732;10.266;2024-03-25T17:49:54;6.40;98.60
20594;DHT22;10455;48.732;10.266;2024-03-25T17:54:56;6.20;99.00
20594;DHT22;10455;48.732;10.266;2024-03-25T17:59:58;6.00;99.40
20594;DHT22;10455;48.732;10.266;2024-03-25T18:04:59;6.00;99.90
20594;DHT22;10455;48.732;10.266;2024-03-25T18:10:00;5.90;99.80
20594;DHT22;10455;48.732;10.266;2024-03-25T18:15:03;5.80;99.90
20594;DHT22;10455;48.732;10.266;2024-03-25T18:20:05;5.70;99.90
20594;DHT22;10455;48.732;10.266;2024-03-25T18:25:07;5.60;99.90
20594;DHT22;10455;48.732;10.266;2024-03-25T18:30:11;5.60;99.90
20594;DHT22;10455;48.732;10.266;2024-03-25T18:35:12;5.40;99.90
20594;DHT22;10455;48.732;10.266;2024-03-25T18:40:13;5.30;99.90
20594;DHT22;10455;48.732;10.266;2024-03-25T18:45:16;5.30;99.90
20594;DHT22;10455;48.732;10.266;2024-03-25T18:50:17;5.30;99.90
20594;DHT22;10455;48.732;10.266;2024-03-25T18:55:18;5.10;99.90
20594;DHT22;10455;48.732;10.266;2024-03-25T19:00:21;4.90;99.90
20594;DHT22;10455;48.732;10.266;2024-03-25T19:05:22;4.70;99.90
20594;DHT22;10455;48.732;10.266;2024-03-25T19:10:23;4.70;99.90
20594;DHT22;10455;48.732;10.266;2024-03-25T19:15:26;4.80;99.90
20594;DHT22;10455;48.732;10.266;2024-03-25T19:20:27;4.90;99.90
20594;DHT22;10455;48.732;10.266;2024-03-25T19:25:28;5.10;99.90
20594;DHT22;10455;48.732;10.266;2024-03-25T19:30:31;5.10;99.90
20594;DHT22;10455;48.732;10.266;2024-03-25T19:35:32;5.20;99.90
20594;DHT22;10455;48.732;10.266;2024-03-25T19:40:33;5.10;99.90
20594;DHT22;10455;48.732;10.266;2024-03-25T19:45:35;5.10;99.90
20594;DHT22;10455;48.732;10.266;2024-03-25T19:50:36;5.10;99.90
20594;DHT22;10455;48.732;10.266;2024-03-25T19:55:37;5.10;99.90
20594;DHT22;10455;48.732;10.266;2024-03-25T20:00:40;5.00;99.90
20594;DHT22;10455;48.732;10.266;2024-03-25T20:05:41;4.90;99.90
20594;DHT22;10455;48.732;10.266;2024-03-25T20:10:42;4.80;99.90
20594;DHT22;10455;48.732;10.266;2024-03-25T20:15:45;4.70;99.90
20594;DHT22;10455;48.732;10.266;2024-03-25T20:20:46;4.70;99.90
20594;DHT22;10455;48.732;10.266;2024-03-25T20:25:47;4.70;99.90
20594;DHT22;10455;48.732;10.266;2024-03-25T20:30:49;4.60;99.90
20594;DHT22;10455;48.732;10.266;2024-03-25T20:35:50;4.70;99.90
20594;DHT22;10455;48.732;10.266;2024-03-25T20:40:51;4.60;99.90
20594;DHT22;10455;48.732;10.266;2024-03-25T20:45:54;4.50;99.90
20594;DHT22;10455;48.732;10.266;2024-03-25T20:50:55;4.50;99.90
20594;DHT22;10455;48.732;10.266;2024-03-25T20:55:56;4.40;99.90
20594;DHT22;10455;48.732;10.266;2024-03-25T21:00:59;4.30;99.90
20594;DHT22;10455;48.732;10.266;2024-03-25T21:06:00;4.30;99.90
20594;DHT22;10455;48.732;10.266;2024-03-25T21:11:02;4.40;99.90
20594;DHT22;10455;48.732;10.266;2024-03-25T21:16:04;4.30;99.90
20594;DHT22;10455;48.732;10.266;2024-03-25T21:21:06;4.30;99.90
20594;DHT22;10455;48.732;10.266;2024-03-25T21:26:07;4.30;99.90
20594;DHT22;10455;48.732;10.266;2024-03-25T21:31:09;4.10;99.90
20594;DHT22;10455;48.732;10.266;2024-03-25T21:36:10;4.20;99.90
20594;DHT22;10455;48.732;10.266;2024-03-25T21:41:11;4.10;99.90
20594;DHT22;10455;48.732;10.266;2024-03-25T21:46:14;4.10;99.90
20594;DHT22;10455;48.732;10.266;2024-03-25T21:51:15;4.10;99.90
20594;DHT22;10455;48.732;10.266;2024-03-25T21:56:16;4.00;99.90
20594;DHT22;10455;48.732;10.266;2024-03-25T22:01:18;3.80;99.90
20594;DHT22;10455;48.732;10.266;2024-03-25T22:06:19;3.70;99.90
20594;DHT22;10455;48.732;10.266;2024-03-25T22:11:20;3.70;99.90
20594;DHT22;10455;48.732;10.266;2024-03-25T22:16:23;3.90;99.90
20594;DHT22;10455;48.732;10.266;2024-03-25T22:21:24;3.80;99.90
20594;DHT22;10455;48.732;10.266;2024-03-25T22:26:25;3.70;99.90
20594;DHT22;10455;48.732;10.266;2024-03-25T22:31:27;3.60;99.90
20594;DHT22;10455;48.732;10.266;2024-03-25T22:36:28;3.50;99.90
20594;DHT22;10455;48.732;10.266;2024-03-25T22:41:29;3.40;99.90
20594;DHT22;10455;48.732;10.266;2024-03-25T22:46:32;3.50;99.90
20594;DHT22;10455;48.732;10.266;2024-03-25T22:51:32;3.50;99.90
20594;DHT22;10455;48.732;10.266;2024-03-25T22:56:34;3.50;99.90
20594;DHT22;10455;48.732;10.266;2024-03-25T23:01:36;3.50;99.90
20594;DHT22;10455;48.732;10.266;2024-03-25T23:06:37;3.50;99.90
20594;DHT22;10455;48.732;10.266;2024-03-25T23:11:38;3.40;99.90
20594;DHT22;10455;48.732;10.266;2024-03-25T23:16:40;3.50;99.90
20594;DHT22;10455;48.732;10.266;2024-03-25T23:21:41;3.30;99.90
20594;DHT22;10455;48.732;10.266;2024-03-25T23:26:42;3.30;99.90
20594;DHT22;10455;48.732;10.266;2024-03-25T23:31:45;3.20;99.90
20594;DHT22;10455;48.732;10.266;2024-03-25T23:36:46;3.10;99.90
20594;DHT22;10455;48.732;10.266;2024-03-25T23:41:47;3.10;99.90
20594;DHT22;10455;48.732;10.266;2024-03-25T23:46:49;3.00;99.90
20594;DHT22;10455;48.732;10.266;2024-03-25T23:51:50;2.90;99.90
20594;DHT22;10455;48.732;10.266;2024-03-25T23:56:51;2.30;99.90
